Crystal City, Virginia
Current Conditions -  °F | °C
As of 3:52 AM on Wednesday 26 Nov 2014 (Local Time) from KDCA Reporting Station
Light Rain Light Rain  
Wind Chill: 50°   Ceiling: 6000
Heat Index: 50°   Visibility: 10mi
Dew Point: 37°   Wind: 3mph
Humidity: 61%   Direction: 30°NNE
Pressure: 30.07"   Gusts: NA
Location:  38.8565°N, 77.0512°W
Report Text: KDCA 260852Z 03003KT 10SM -RA OVC060 10/03 A3007 RMK AO2 SLP183 P0001 60001 T01000028 58030
Loading
Personal Weather Stations






























Interactive Weather Map New forecast layout! Learn more

10-Day Weather Forecast

Advertisements
Track Severe Weather on mobile